Time;durP1;ratioP1;P1;durP2;ratioP2;P2;SDS_P1;SDS_P2;PMS_P1;PMS_P2;Temp;Humidity;BMP_temperature;BMP_pressure;BME280_temperature;BME280_humidity;BME280_pressure;Samples;Min_cycle;Max_cycle;Signal;HPM_P1;HPM_P2
2022/10/10 00:00:46;;;;;;;5.55;1.10;;;34.20;61.60;;;;;;4929790;29;20482;-69
2022/10/10 00:03:12;;;;;;;7.28;0.98;;;34.30;69.60;;;;;;4930183;29;20395;-68
2022/10/10 00:05:39;;;;;;;3.85;1.15;;;34.40;43.90;;;;;;4929709;29;20123;-68
2022/10/10 00:08:07;;;;;;;6.97;0.85;;;33.90;73.20;;;;;;4929972;29;20027;-67
2022/10/10 00:10:34;;;;;;;4.30;0.82;;;34.30;44.10;;;;;;4930061;29;20030;-67
2022/10/10 00:13:00;;;;;;;1.85;0.70;;;34.10;77.40;;;;;;4929095;28;20051;-67
2022/10/10 00:15:27;;;;;;;3.42;0.65;;;34.30;47.90;;;;;;4929626;29;20019;-68
2022/10/10 00:17:54;;;;;;;1.23;0.60;;;34.10;43.90;;;;;;4928639;29;20030;-68
2022/10/10 00:20:20;;;;;;;3.00;0.80;;;34.10;44.40;;;;;;4928597;29;20479;-69
2022/10/10 00:22:48;;;;;;;5.80;0.70;;;34.10;44.50;;;;;;4930214;29;21743;-69
2022/10/10 00:25:14;;;;;;;1.77;0.45;;;34.10;44.10;;;;;;4929690;29;20152;-68
2022/10/10 00:27:41;;;;;;;4.43;0.60;;;34.00;44.10;;;;;;4929789;29;20072;-66
2022/10/10 00:30:08;;;;;;;0.85;0.50;;;34.00;44.10;;;;;;4929807;29;20095;-67
2022/10/10 00:32:36;;;;;;;1.48;0.55;;;33.90;44.30;;;;;;4929539;29;20090;-68
2022/10/10 00:35:04;;;;;;;5.63;0.80;;;33.80;44.50;;;;;;4929514;29;20059;-67
2022/10/10 00:37:30;;;;;;;3.97;0.75;;;33.60;59.00;;;;;;4929939;29;20078;-74
2022/10/10 00:39:57;;;;;;;4.93;1.83;;;33.60;45.20;;;;;;4929348;29;20482;-69
2022/10/10 00:42:23;;;;;;;78.80;70.72;;;33.50;45.20;;;;;;4929108;29;20532;-71
2022/10/10 00:45:31;;;;;;;1.92;1.20;;;33.30;45.30;;;;;;4929454;29;20083;-66
2022/10/10 00:48:07;;;;;;;5.40;0.90;;;33.20;45.30;;;;;;4945798;28;20044;-68
2022/10/10 00:50:37;;;;;;;4.65;0.82;;;33.00;46.20;;;;;;4933418;29;20105;-66
2022/10/10 00:53:06;;;;;;;2.58;0.65;;;33.00;45.10;;;;;;4929636;29;20122;-66
2022/10/10 00:55:32;;;;;;;2.22;0.80;;;;;;;;;;4927745;29;20020;-67
2022/10/10 00:57:59;;;;;;;1.98;0.80;;;;;;;;;;4929386;29;20150;-67
2022/10/10 01:00:26;;;;;;;2.58;0.80;;;;;;;;;;4930115;29;20024;-68
2022/10/10 01:02:52;;;;;;;2.70;0.70;;;32.60;82.70;;;;;;4928731;29;20115;-67
2022/10/10 01:05:18;;;;;;;1.83;0.70;;;;;;;;;;4929088;29;20337;-67
2022/10/10 01:07:45;;;;;;;5.93;1.00;;;;;;;;;;4929510;29;20139;-68
2022/10/10 01:10:14;;;;;;;5.45;1.00;;;;;;;;;;4930059;29;20107;-68
2022/10/10 01:12:48;;;;;;;6.03;1.20;;;;;;;;;;4930553;28;20399;-68
2022/10/10 01:15:18;;;;;;;6.78;0.95;;;;;;;;;;4929734;29;20090;-67
2022/10/10 01:18:01;;;;;;;5.80;0.98;;;32.40;46.50;;;;;;4927201;29;20498;-66
2022/10/10 01:20:50;;;;;;;8.07;1.10;;;32.40;60.70;;;;;;4926684;28;20019;-67
2022/10/10 01:23:41;;;;;;;5.40;1.17;;;32.40;51.40;;;;;;4929804;28;20051;-67
2022/10/10 01:26:08;;;;;;;4.78;1.48;;;;;;;;;;4928459;29;20079;-67
2022/10/10 01:28:34;;;;;;;7.88;0.85;;;;;;;;;;4929814;29;20028;-66
2022/10/10 01:31:01;;;;;;;4.35;1.02;;;;;;;;;;4929070;29;20042;-67
2022/10/10 01:33:56;;;;;;;2.67;0.90;;;32.20;87.00;;;;;;4929013;29;20387;-67
2022/10/10 01:36:49;;;;;;;11.38;1.33;;;32.00;65.90;;;;;;4928231;28;20043;-67
2022/10/10 01:39:51;;;;;;;9.75;1.30;;;32.10;86.80;;;;;;4938781;28;20445;-68
2022/10/10 01:42:53;;;;;;;12.75;1.38;;;31.90;71.00;;;;;;4932246;28;20040;-67
2022/10/10 01:45:20;;;;;;;7.00;1.40;;;31.70;53.90;;;;;;5006904;28;20096;-67
2022/10/10 01:47:48;;;;;;;4.38;0.90;;;31.80;56.80;;;;;;5005997;28;20038;-68
2022/10/10 01:50:18;;;;;;;2.95;0.85;;;31.90;56.90;;;;;;5008560;28;20116;-66
2022/10/10 01:53:03;;;;;;;21.40;13.30;;;31.90;55.00;;;;;;4997957;28;20489;-67
2022/10/10 01:55:46;;;;;;;11.77;4.85;;;31.60;47.80;;;;;;5014830;28;20045;-67
2022/10/10 01:58:43;;;;;;;13.45;3.10;;;31.80;59.70;;;;;;5017658;28;20651;-67
2022/10/10 02:01:18;;;;;;;5.30;1.88;;;;;;;;;;5012635;28;20041;-67
2022/10/10 02:03:52;;;;;;;9.48;1.60;;;;;;;;;;5015583;28;20108;-67
2022/10/10 02:06:31;;;;;;;7.25;1.75;;;;;;;;;;5017407;28;20037;-67
2022/10/10 02:09:06;;;;;;;8.95;2.92;;;31.60;64.60;;;;;;5017390;28;20087;-67
2022/10/10 02:11:35;;;;;;;7.43;2.92;;;;;;;;;;5016026;28;20037;-66
2022/10/10 02:14:09;;;;;;;19.35;3.35;;;;;;;;;;5014547;28;20044;-67
2022/10/10 02:16:40;;;;;;;14.05;3.60;;;31.50;59.30;;;;;;5016658;28;20030;-67
2022/10/10 02:19:09;;;;;;;16.33;3.25;;;31.30;66.50;;;;;;5016374;28;20093;-66
2022/10/10 02:21:38;;;;;;;33.13;5.75;;;31.40;66.20;;;;;;4945063;28;20032;-68
2022/10/10 02:24:07;;;;;;;22.08;3.40;;;31.30;73.50;;;;;;4932035;29;20043;-68
2022/10/10 02:26:34;;;;;;;19.35;2.78;;;;;;;;;;4932617;29;20027;-67
2022/10/10 02:29:06;;;;;;;18.60;2.85;;;;;;;;;;4933231;29;20055;-66
2022/10/10 02:31:46;;;;;;;26.48;2.88;;;31.30;71.70;;;;;;4930444;29;20024;-68
2022/10/10 02:34:20;;;;;;;16.50;2.47;;;31.30;66.60;;;;;;4931707;28;20027;-67
2022/10/10 02:36:49;;;;;;;30.15;2.75;;;;;;;;;;4931944;28;20107;-66
2022/10/10 02:39:17;;;;;;;17.90;2.83;;;;;;;;;;4931878;29;20114;-67
2022/10/10 02:41:46;;;;;;;14.82;2.35;;;31.30;75.80;;;;;;4931888;29;20059;-67
2022/10/10 02:44:14;;;;;;;17.73;2.03;;;;;;;;;;4932764;29;20390;-68
2022/10/10 02:46:40;;;;;;;22.88;2.75;;;;;;;;;;4931705;29;20479;-66
2022/10/10 02:49:10;;;;;;;18.25;2.50;;;;;;;;;;4931668;29;20478;-68
2022/10/10 02:51:38;;;;;;;29.80;2.63;;;30.90;58.40;;;;;;4930884;29;20390;-66
2022/10/10 02:54:05;;;;;;;19.85;2.42;;;31.00;49.30;;;;;;4931354;29;20020;-68
2022/10/10 02:56:32;;;;;;;12.15;2.55;;;;;;;;;;4931259;29;20486;-67
2022/10/10 02:58:59;;;;;;;14.57;2.30;;;;;;;;;;5015165;28;20441;-68
2022/10/10 03:01:25;;;;;;;25.05;2.78;;;;;;;;;;4930005;29;20099;-67
2022/10/10 03:03:52;;;;;;;14.55;2.72;;;;;;;;;;4930610;29;20030;-67
2022/10/10 03:06:18;;;;;;;30.95;2.88;;;;;;;;;;4930896;29;20509;-69
2022/10/10 03:08:45;;;;;;;23.85;3.90;;;;;;;;;;4931202;29;20059;-66
2022/10/10 03:11:11;;;;;;;14.02;2.80;;;;;;;;;;4930018;29;20020;-67
2022/10/10 03:13:38;;;;;;;20.92;2.45;;;;;;;;;;4930581;29;20498;-66
2022/10/10 03:16:05;;;;;;;11.55;2.28;;;;;;;;;;4930936;29;20023;-66
2022/10/10 03:18:32;;;;;;;14.23;2.53;;;;;;;;;;4930962;29;20016;-67
2022/10/10 03:20:58;;;;;;;11.52;2.50;;;;;;;;;;4928412;29;20020;-67
2022/10/10 03:23:25;;;;;;;15.77;2.75;;;30.50;76.90;;;;;;4929741;29;20498;-66
2022/10/10 03:25:52;;;;;;;14.52;2.42;;;;;;;;;;4931289;29;20059;-67
2022/10/10 03:28:18;;;;;;;15.55;2.92;;;;;;;;;;4931754;29;20035;-67
2022/10/10 03:30:45;;;;;;;18.88;2.78;;;;;;;;;;4930902;29;20073;-66
2022/10/10 03:33:11;;;;;;;15.60;2.55;;;;;;;;;;4930940;29;20032;-67
2022/10/10 03:35:38;;;;;;;18.98;3.00;;;;;;;;;;4930616;29;20042;-69
2022/10/10 03:38:05;;;;;;;28.50;3.30;;;;;;;;;;4930581;28;20368;-67
2022/10/10 03:40:32;;;;;;;21.98;3.10;;;;;;;;;;4930999;29;20074;-67
2022/10/10 03:42:58;;;;;;;24.20;4.75;;;29.80;90.60;;;;;;4930130;29;20073;-70
2022/10/10 03:45:25;;;;;;;21.67;4.95;;;;;;;;;;5012824;28;20039;-65
2022/10/10 03:47:51;;;;;;;25.63;5.30;;;29.90;93.00;;;;;;4931030;29;20031;-66
2022/10/10 03:50:18;;;;;;;31.27;6.22;;;;;;;;;;4945349;28;20027;-67
2022/10/10 03:52:44;;;;;;;29.15;5.72;;;29.70;80.70;;;;;;4930441;29;20064;-68
2022/10/10 03:55:11;;;;;;;30.58;5.50;;;29.30;85.20;;;;;;4930440;29;20183;-66
2022/10/10 03:57:37;;;;;;;31.88;5.65;;;;;;;;;;4930664;29;20475;-65
2022/10/10 04:00:04;;;;;;;24.52;5.43;;;29.60;54.30;;;;;;4930526;29;20035;-67
2022/10/10 04:02:31;;;;;;;24.75;5.65;;;;;;;;;;4930588;29;20055;-68
2022/10/10 04:04:57;;;;;;;31.05;5.88;;;29.50;90.10;;;;;;4930246;29;20090;-68
2022/10/10 04:07:23;;;;;;;20.38;5.13;;;29.70;95.40;;;;;;4930518;29;20035;-66
2022/10/10 04:09:50;;;;;;;23.52;5.85;;;;;;;;;;4930003;29;20063;-68
2022/10/10 04:12:16;;;;;;;25.98;5.82;;;;;;;;;;4930213;29;20035;-67
2022/10/10 04:14:43;;;;;;;37.97;6.25;;;;;;;;;;4929987;29;20039;-67
2022/10/10 04:17:09;;;;;;;34.33;5.88;;;;;;;;;;4929830;29;20491;-67
2022/10/10 04:19:39;;;;;;;26.35;6.70;;;29.10;55.50;;;;;;4929717;29;20032;-66
2022/10/10 04:22:06;;;;;;;28.98;6.80;;;;;;;;;;4926057;29;20491;-68
2022/10/10 04:24:32;;;;;;;32.35;6.40;;;29.40;84.60;;;;;;4929302;29;20489;-66
2022/10/10 04:26:58;;;;;;;27.15;6.35;;;;;;;;;;4930067;29;20051;-66
2022/10/10 04:29:25;;;;;;;28.20;7.15;;;29.40;84.50;;;;;;4930857;29;20470;-66
2022/10/10 04:31:51;;;;;;;29.25;6.68;;;29.50;60.90;;;;;;4930228;28;20477;-67
2022/10/10 04:34:18;;;;;;;27.75;6.47;;;29.50;85.90;;;;;;4930034;29;20100;-68
2022/10/10 04:36:44;;;;;;;26.17;6.72;;;28.70;84.40;;;;;;4936073;28;20480;-68
2022/10/10 04:39:11;;;;;;;26.45;6.80;;;29.00;86.40;;;;;;4929671;29;20061;-67
2022/10/10 04:41:37;;;;;;;27.75;6.70;;;29.10;85.70;;;;;;4929705;28;20060;-66
2022/10/10 04:44:04;;;;;;;36.45;7.22;;;;;;;;;;4929687;29;20081;-68
2022/10/10 04:46:30;;;;;;;38.40;6.78;;;28.70;88.80;;;;;;4929027;29;20044;-66
2022/10/10 04:48:56;;;;;;;45.95;7.25;;;28.40;57.00;;;;;;4928461;29;20048;-66
2022/10/10 04:51:23;;;;;;;73.82;8.82;;;28.70;91.60;;;;;;4929540;29;20520;-64
2022/10/10 04:53:49;;;;;;;36.53;6.60;;;;;;;;;;4928644;29;20559;-63
2022/10/10 04:56:16;;;;;;;44.22;7.93;;;;;;;;;;4928784;29;20027;-65
2022/10/10 04:58:42;;;;;;;29.25;6.15;;;;;;;;;;4929341;29;20609;-63
2022/10/10 05:01:09;;;;;;;32.35;6.43;;;29.80;58.00;;;;;;4928767;29;20042;-64
2022/10/10 05:03:35;;;;;;;26.13;5.47;;;;;;;;;;4928940;29;20066;-64
2022/10/10 05:06:02;;;;;;;27.40;5.85;;;28.30;86.90;;;;;;4927770;29;20512;-64
2022/10/10 05:08:28;;;;;;;34.17;6.40;;;;;;;;;;4928591;29;20413;-65
2022/10/10 05:10:54;;;;;;;24.73;6.18;;;28.70;88.50;;;;;;4928312;29;20058;-62
2022/10/10 05:13:21;;;;;;;26.55;6.03;;;;;;;;;;4928010;29;20453;-63
2022/10/10 05:15:51;;;;;;;34.22;6.72;;;28.70;63.30;;;;;;4929256;29;20049;-61
2022/10/10 05:18:18;;;;;;;46.58;7.20;;;28.70;66.00;;;;;;4927287;29;20406;-64
2022/10/10 05:20:46;;;;;;;46.03;8.88;;;;;;;;;;4928896;29;20600;-65
2022/10/10 05:23:16;;;;;;;42.65;9.32;;;28.50;58.30;;;;;;4926424;29;20606;-63
2022/10/10 05:25:43;;;;;;;37.10;9.02;;;;;;;;;;4928300;29;20410;-64
2022/10/10 05:28:11;;;;;;;34.45;9.60;;;27.20;56.20;;;;;;4929863;29;20027;-64
2022/10/10 05:30:37;;;;;;;50.15;15.40;;;;;;;;;;4927798;29;20430;-66
2022/10/10 05:33:04;;;;;;;34.40;13.10;;;;;;;;;;4928422;29;20081;-62
2022/10/10 05:35:31;;;;;;;42.88;11.93;;;;;;;;;;4928352;29;20024;-63
2022/10/10 05:37:57;;;;;;;28.42;10.30;;;28.00;86.30;;;;;;4928499;29;20049;-64
2022/10/10 05:40:24;;;;;;;40.53;10.77;;;28.40;58.90;;;;;;4927899;29;20956;-63
2022/10/10 05:42:50;;;;;;;40.97;8.70;;;28.60;91.70;;;;;;4927776;28;20056;-64
2022/10/10 05:45:17;;;;;;;37.90;8.73;;;28.40;85.00;;;;;;4928997;29;20379;-63
2022/10/10 05:47:44;;;;;;;34.33;8.20;;;;;;;;;;4928251;29;20458;-63
2022/10/10 05:50:37;;;;;;;47.58;9.20;;;27.90;86.30;;;;;;4928141;29;20442;-63
2022/10/10 05:53:05;;;;;;;33.88;8.18;;;28.50;87.90;;;;;;4928947;28;20148;-64
2022/10/10 05:55:32;;;;;;;43.45;9.20;;;28.20;59.30;;;;;;4927711;29;20401;-64
2022/10/10 05:57:59;;;;;;;31.35;8.43;;;28.00;73.40;;;;;;4927951;29;20047;-62
2022/10/10 06:00:25;;;;;;;42.95;9.75;;;28.60;86.10;;;;;;4928104;29;20062;-64
2022/10/10 06:02:52;;;;;;;36.70;9.45;;;;;;;;;;4927858;29;20049;-64
2022/10/10 06:05:19;;;;;;;44.67;10.55;;;;;;;;;;4926725;29;20480;-65
2022/10/10 06:07:45;;;;;;;44.97;9.93;;;28.10;58.90;;;;;;4927360;29;20057;-65
2022/10/10 06:10:11;;;;;;;40.92;9.35;;;28.20;66.00;;;;;;4928097;29;20054;-61
2022/10/10 06:12:38;;;;;;;48.38;8.80;;;28.20;87.60;;;;;;4927306;29;20077;-63
2022/10/10 06:15:04;;;;;;;38.47;8.35;;;28.20;58.90;;;;;;4928416;29;20034;-64
2022/10/10 06:17:31;;;;;;;35.67;8.55;;;28.10;90.20;;;;;;4927638;29;20043;-64
2022/10/10 06:19:58;;;;;;;41.30;8.90;;;27.70;90.30;;;;;;4927576;29;20516;-63
2022/10/10 06:22:24;;;;;;;33.75;8.27;;;;;;;;;;4928034;29;20502;-61
2022/10/10 06:24:51;;;;;;;36.80;8.43;;;;;;;;;;4924444;29;20049;-67
2022/10/10 06:27:17;;;;;;;28.05;8.32;;;28.00;89.90;;;;;;4927498;29;20514;-64
2022/10/10 06:29:44;;;;;;;36.22;7.90;;;;;;;;;;4927963;29;20103;-65
2022/10/10 06:32:10;;;;;;;38.92;8.48;;;28.00;92.40;;;;;;4927473;29;20120;-63
2022/10/10 06:34:36;;;;;;;40.80;8.52;;;28.30;75.70;;;;;;4926607;29;20037;-64
2022/10/10 06:37:03;;;;;;;41.08;8.10;;;;;;;;;;4928682;28;20589;-64
2022/10/10 06:39:29;;;;;;;38.25;8.55;;;27.70;72.00;;;;;;4930509;29;20042;-66
2022/10/10 06:41:56;;;;;;;34.45;10.00;;;27.90;59.70;;;;;;4930886;29;20449;-62
2022/10/10 06:44:22;;;;;;;40.80;8.90;;;28.00;88.90;;;;;;4929788;29;20097;-64
2022/10/10 06:46:48;;;;;;;47.53;10.75;;;27.90;59.50;;;;;;4931062;29;20365;-63
2022/10/10 06:49:15;;;;;;;51.58;11.30;;;27.90;59.60;;;;;;4931038;29;20533;-63
2022/10/10 06:51:41;;;;;;;48.83;11.35;;;27.90;60.50;;;;;;4930237;28;20094;-64
2022/10/10 06:54:19;;;;;;;44.60;11.65;;;27.90;60.20;;;;;;4931043;29;20020;-57
2022/10/10 06:56:46;;;;;;;50.65;12.00;;;27.90;59.70;;;;;;4930525;29;20518;-65
2022/10/10 06:59:12;;;;;;;43.47;12.10;;;28.00;59.80;;;;;;4931371;29;20599;-64
2022/10/10 07:01:38;;;;;;;46.92;12.40;;;27.90;59.90;;;;;;4930332;29;20114;-64
2022/10/10 07:04:05;;;;;;;46.92;12.20;;;27.90;59.80;;;;;;4930806;29;20084;-64
2022/10/10 07:06:31;;;;;;;53.20;13.40;;;27.90;59.80;;;;;;4929162;29;20075;-64
2022/10/10 07:08:58;;;;;;;38.15;12.60;;;27.90;60.20;;;;;;4930916;29;20545;-63
2022/10/10 07:11:24;;;;;;;42.47;12.35;;;27.90;60.50;;;;;;4929473;29;20107;-63
2022/10/10 07:13:52;;;;;;;58.60;12.68;;;27.80;60.80;;;;;;4929911;29;20447;-62
2022/10/10 07:16:19;;;;;;;47.33;12.18;;;27.80;61.10;;;;;;4930922;29;20080;-62
2022/10/10 07:18:45;;;;;;;50.95;12.80;;;27.80;60.70;;;;;;4930713;29;20090;-64
2022/10/10 07:21:12;;;;;;;62.92;13.02;;;27.80;60.80;;;;;;4930198;29;20075;-62
2022/10/10 07:23:38;;;;;;;43.05;12.43;;;27.80;60.40;;;;;;4930418;29;20182;-64
2022/10/10 07:26:09;;;;;;;41.83;12.20;;;27.70;60.60;;;;;;4926876;29;20593;-65
2022/10/10 07:28:36;;;;;;;50.10;12.10;;;27.70;61.00;;;;;;4930848;29;20535;-64
2022/10/10 07:31:06;;;;;;;44.35;11.27;;;27.70;61.00;;;;;;4930190;29;20071;-65
2022/10/10 07:33:33;;;;;;;50.25;13.18;;;27.70;61.10;;;;;;4930165;29;20095;-64
2022/10/10 07:36:00;;;;;;;52.35;13.02;;;27.70;61.40;;;;;;4929828;29;20071;-65
2022/10/10 07:38:27;;;;;;;50.90;13.35;;;27.70;61.40;;;;;;4929953;29;20075;-64
2022/10/10 07:40:53;;;;;;;46.38;12.98;;;27.70;61.60;;;;;;4930087;29;20549;-64
2022/10/10 07:43:20;;;;;;;51.53;11.90;;;27.60;61.40;;;;;;4930447;29;20170;-63
2022/10/10 07:45:46;;;;;;;54.85;13.27;;;27.60;61.90;;;;;;4930305;29;20137;-65
2022/10/10 07:48:12;;;;;;;53.08;12.20;;;27.60;62.20;;;;;;4929252;29;20106;-64
2022/10/10 07:50:43;;;;;;;49.75;12.25;;;27.50;62.40;;;;;;4929451;29;20205;-64
2022/10/10 07:53:10;;;;;;;59.28;12.52;;;27.50;62.50;;;;;;4929631;29;20526;-62
2022/10/10 07:55:41;;;;;;;60.53;13.60;;;27.50;62.50;;;;;;4928681;29;20160;-56
2022/10/10 07:58:08;;;;;;;59.33;11.80;;;27.50;62.70;;;;;;4930661;28;20174;-59
2022/10/10 08:00:36;;;;;;;60.17;13.25;;;27.50;62.20;;;;;;4929425;29;20567;-57
2022/10/10 08:03:02;;;;;;;41.20;11.05;;;27.60;62.30;;;;;;4929668;29;20079;-60
2022/10/10 08:05:29;;;;;;;52.17;12.23;;;27.60;61.80;;;;;;4929727;29;20077;-60
2022/10/10 08:07:55;;;;;;;48.78;12.52;;;27.80;62.30;;;;;;4928907;29;20071;-57
2022/10/10 08:10:21;;;;;;;53.28;15.05;;;28.00;61.50;;;;;;4930017;29;20075;-60
2022/10/10 08:12:48;;;;;;;97.20;39.88;;;28.10;60.70;;;;;;4929170;29;20111;-57
2022/10/10 08:15:14;;;;;;;100.38;40.78;;;28.10;60.90;;;;;;4929156;29;20075;-60
2022/10/10 08:17:41;;;;;;;170.85;81.93;;;28.00;61.20;;;;;;4929712;29;20071;-59
2022/10/10 08:20:07;;;;;;;109.78;40.58;;;28.00;60.50;;;;;;4928882;29;20071;-55
2022/10/10 08:22:34;;;;;;;81.57;22.50;;;28.00;60.20;;;;;;4929535;29;20071;-55
2022/10/10 08:25:00;;;;;;;55.65;16.08;;;28.10;60.70;;;;;;4928723;29;20082;-57
2022/10/10 08:27:27;;;;;;;46.90;13.77;;;28.00;60.90;;;;;;4926532;29;20074;-56
2022/10/10 08:29:53;;;;;;;49.65;12.30;;;28.00;61.50;;;;;;4930089;29;20079;-58
2022/10/10 08:32:19;;;;;;;46.03;12.35;;;28.10;60.80;;;;;;4929313;29;20095;-59
2022/10/10 08:34:46;;;;;;;59.17;12.60;;;28.00;61.10;;;;;;4929026;29;20091;-56
2022/10/10 08:37:12;;;;;;;55.95;11.68;;;28.00;60.80;;;;;;4929099;29;20110;-59
2022/10/10 08:39:39;;;;;;;44.35;12.23;;;28.00;61.70;;;;;;4927886;29;20075;-58
2022/10/10 08:42:05;;;;;;;42.67;11.40;;;28.00;61.30;;;;;;4929079;29;20079;-57
2022/10/10 08:44:50;;;;;;;53.70;13.25;;;27.90;61.40;;;;;;4930193;29;20067;-58
2022/10/10 08:47:23;;;;;;;53.05;14.20;;;27.90;61.10;;;;;;4929214;28;20083;-59
2022/10/10 08:49:54;;;;;;;41.92;12.23;;;27.90;61.20;;;;;;4929357;29;20083;-56
2022/10/10 08:52:57;;;;;;;50.78;12.93;;;27.80;61.50;;;;;;4928332;29;20129;-54
2022/10/10 08:55:32;;;;;;;48.78;13.88;;;27.90;61.30;;;;;;4929238;29;20077;-57
2022/10/10 08:58:17;;;;;;;44.22;11.70;;;27.80;61.30;;;;;;4929202;29;20073;-56
2022/10/10 09:01:09;;;;;;;45.42;12.38;;;27.90;61.00;;;;;;4928047;29;20084;-56
2022/10/10 09:03:54;;;;;;;48.95;11.93;;;27.80;61.20;;;;;;4929079;28;20103;-57
2022/10/10 09:06:32;;;;;;;57.45;12.45;;;27.80;61.50;;;;;;4928017;28;20082;-57
2022/10/10 09:09:11;;;;;;;48.67;11.60;;;27.60;62.30;;;;;;4928214;29;20217;-59
2022/10/10 09:11:43;;;;;;;47.88;11.55;;;27.20;74.00;;;;;;4928739;29;20028;-56
2022/10/10 09:14:15;;;;;;;41.90;11.38;;;27.30;63.10;;;;;;4928602;29;20123;-58
2022/10/10 09:16:46;;;;;;;44.42;11.27;;;27.40;62.40;;;;;;4929032;29;20075;-56
2022/10/10 09:19:23;;;;;;;38.50;11.02;;;27.50;62.70;;;;;;4928816;29;20197;-63
2022/10/10 09:21:53;;;;;;;49.13;10.80;;;27.40;63.20;;;;;;4928040;29;20071;-60
2022/10/10 09:24:43;;;;;;;39.17;11.02;;;27.40;63.00;;;;;;4927870;29;20123;-59
2022/10/10 09:27:18;;;;;;;40.53;11.75;;;27.40;63.40;;;;;;4926402;28;20096;-57
2022/10/10 09:29:49;;;;;;;46.88;11.23;;;27.30;63.20;;;;;;4927740;29;20074;-60
2022/10/10 09:32:38;;;;;;;43.45;10.95;;;27.30;63.60;;;;;;4927891;29;20087;-53
2022/10/10 09:35:26;;;;;;;40.28;11.05;;;27.20;63.90;;;;;;4928017;29;20479;-60
2022/10/10 09:38:13;;;;;;;42.05;10.13;;;27.10;64.10;;;;;;4928119;29;20072;-56
2022/10/10 09:40:54;;;;;;;35.47;9.35;;;27.10;64.00;;;;;;4928198;29;20105;-58
2022/10/10 09:43:21;;;;;;;50.75;9.85;;;27.10;64.50;;;;;;4927545;29;20085;-62
2022/10/10 09:45:55;;;;;;;51.70;9.48;;;27.10;64.50;;;;;;4929457;29;20078;-57
2022/10/10 09:48:38;;;;;;;32.30;9.85;;;27.10;64.30;;;;;;4928292;29;20127;-58
2022/10/10 09:51:14;;;;;;;47.20;9.90;;;27.10;64.00;;;;;;4928282;29;20454;-56
2022/10/10 09:53:42;;;;;;;47.85;10.20;;;27.00;64.00;;;;;;4928343;29;20663;-58
2022/10/10 09:56:20;;;;;;;31.48;9.15;;;27.00;63.90;;;;;;4927163;29;20084;-56
2022/10/10 09:58:48;;;;;;;34.97;9.80;;;27.00;64.00;;;;;;4928588;29;20078;-60
2022/10/10 10:01:22;;;;;;;36.45;9.93;;;26.90;63.80;;;;;;4928199;29;20087;-60
2022/10/10 10:04:10;;;;;;;37.28;9.05;;;26.90;63.90;;;;;;4926903;29;20087;-60
2022/10/10 10:06:37;;;;;;;39.30;9.95;;;26.90;64.20;;;;;;4928298;29;20123;-56
2022/10/10 10:09:05;;;;;;;30.10;9.95;;;26.90;64.30;;;;;;4927699;29;20174;-55
2022/10/10 10:11:35;;;;;;;42.60;10.52;;;26.80;64.40;;;;;;4927792;29;20102;-55
2022/10/10 10:14:02;;;;;;;40.92;9.85;;;26.80;64.60;;;;;;4931097;29;20104;-57
2022/10/10 10:16:36;;;;;;;37.53;10.75;;;26.70;65.10;;;;;;4931634;29;20458;-55
2022/10/10 10:19:03;;;;;;;41.03;10.27;;;26.80;65.00;;;;;;4931372;28;20079;-60
2022/10/10 10:21:30;;;;;;;31.90;10.18;;;26.70;65.20;;;;;;4929515;29;20167;-58
2022/10/10 10:24:02;;;;;;;37.60;10.25;;;26.70;65.30;;;;;;4931362;29;20091;-55
2022/10/10 10:26:46;;;;;;;45.10;10.20;;;26.60;65.30;;;;;;4930992;29;20079;-53
2022/10/10 10:29:27;;;;;;;40.15;10.38;;;26.60;65.70;;;;;;4928866;29;20531;-57
2022/10/10 10:32:15;;;;;;;38.40;9.95;;;26.60;66.00;;;;;;4931106;29;20529;-55
2022/10/10 10:35:01;;;;;;;41.47;10.50;;;26.50;66.60;;;;;;4931291;29;20076;-57
2022/10/10 10:37:49;;;;;;;39.20;10.52;;;26.50;66.30;;;;;;4931503;29;20071;-58
2022/10/10 10:40:39;;;;;;;38.05;10.88;;;26.40;66.40;;;;;;4930845;29;20233;-57
2022/10/10 10:43:45;;;;;;;41.95;9.88;;;26.40;66.60;;;;;;4930259;29;20165;-56
2022/10/10 10:46:52;;;;;;;43.75;11.25;;;26.40;67.80;;;;;;4932048;29;20079;-55
2022/10/10 10:49:32;;;;;;;39.63;10.45;;;26.30;66.90;;;;;;4993633;28;20105;-55
2022/10/10 10:52:01;;;;;;;59.67;11.95;;;26.30;67.20;;;;;;5009406;28;20110;-55
2022/10/10 10:55:04;;;;;;;41.88;10.82;;;26.30;67.00;;;;;;5009462;28;20492;-56
2022/10/10 10:58:09;;;;;;;32.25;10.10;;;26.10;67.20;;;;;;5011269;28;20077;-59
2022/10/10 11:01:03;;;;;;;38.38;11.18;;;26.10;67.90;;;;;;4929342;29;20096;-60
2022/10/10 11:03:48;;;;;;;38.75;10.75;;;26.00;69.20;;;;;;4927978;29;20636;-56
2022/10/10 11:06:36;;;;;;;41.42;11.27;;;25.90;69.10;;;;;;4927220;28;20150;-59
2022/10/10 11:09:21;;;;;;;39.53;11.15;;;25.90;68.90;;;;;;4926714;29;20087;-60
2022/10/10 11:12:31;;;;;;;48.40;10.85;;;25.90;69.20;;;;;;4926691;29;20189;-56
2022/10/10 11:15:16;;;;;;;43.80;11.18;;;25.90;69.20;;;;;;4927744;29;20081;-54
2022/10/10 11:18:04;;;;;;;45.08;10.82;;;25.80;69.20;;;;;;4926754;29;20087;-55
2022/10/10 11:20:37;;;;;;;47.13;12.55;;;25.80;69.70;;;;;;4876988;29;20144;-58
2022/10/10 11:23:31;;;;;;;46.35;14.00;;;25.70;69.90;;;;;;4853035;29;20086;-59
2022/10/10 11:26:12;;;;;;;45.00;14.23;;;25.70;70.10;;;;;;4853089;29;20105;-58
2022/10/10 11:28:59;;;;;;;45.97;14.90;;;25.70;70.60;;;;;;4852965;29;20090;-57
2022/10/10 11:31:49;;;;;;;50.65;15.75;;;25.60;70.90;;;;;;4890377;28;20120;-58
2022/10/10 11:34:42;;;;;;;42.88;14.35;;;25.60;71.30;;;;;;5001815;28;20079;-58
2022/10/10 11:37:26;;;;;;;58.40;16.00;;;25.50;71.70;;;;;;4929949;29;20115;-60
2022/10/10 11:39:56;;;;;;;50.17;15.30;;;25.60;72.70;;;;;;4929937;29;20608;-60
2022/10/10 11:42:49;;;;;;;40.95;14.35;;;25.60;71.80;;;;;;4929187;29;20084;-60
2022/10/10 11:45:24;;;;;;;53.35;15.30;;;25.50;72.30;;;;;;4929592;29;20195;-61
2022/10/10 11:47:57;;;;;;;47.42;14.93;;;25.50;72.30;;;;;;4929918;29;20084;-58
2022/10/10 11:50:41;;;;;;;55.53;15.68;;;24.90;95.20;;;;;;4929349;29;20098;-59
2022/10/10 11:53:35;;;;;;;45.95;13.73;;;24.90;98.60;;;;;;4930780;29;20144;-59
2022/10/10 11:56:55;;;;;;;40.17;14.15;;;25.10;93.60;;;;;;4930289;29;20558;-58
2022/10/10 11:59:50;;;;;;;37.25;13.60;;;25.40;93.60;;;;;;5005810;28;20069;-60
2022/10/10 12:02:32;;;;;;;54.97;14.93;;;;;;;;;;5001232;28;20109;-60
2022/10/10 12:04:59;;;;;;;41.85;14.80;;;25.40;95.00;;;;;;5003471;28;20215;-59
2022/10/10 12:07:30;;;;;;;42.20;14.35;;;25.40;73.00;;;;;;5003250;28;20085;-59
2022/10/10 12:10:08;;;;;;;45.95;14.13;;;25.40;73.50;;;;;;5004329;28;20425;-56
2022/10/10 12:12:45;;;;;;;45.00;14.07;;;25.40;73.60;;;;;;5003433;28;20171;-55
2022/10/10 12:15:32;;;;;;;;;;;25.40;73.40;;;;;;5004189;28;20081;-60
2022/10/10 12:17:59;;;;;;;64.22;17.63;;;25.40;73.10;;;;;;5002311;28;19960;-54
2022/10/10 12:20:25;;;;;;;67.93;19.55;;;25.30;74.10;;;;;;5005368;28;20081;-59
2022/10/10 12:23:13;;;;;;;65.07;19.10;;;25.30;73.60;;;;;;5004002;28;20113;-58
2022/10/10 12:25:45;;;;;;;62.72;18.92;;;24.90;97.30;;;;;;5002370;28;20125;-59
2022/10/10 12:28:22;;;;;;;55.90;19.48;;;24.60;99.90;;;;;;5001284;28;20061;-59
2022/10/10 12:30:52;;;;;;;66.47;19.65;;;25.10;73.40;;;;;;4995786;28;20034;-56
2022/10/10 12:33:39;;;;;;;64.60;21.17;;;24.60;99.90;;;;;;4964417;28;20509;-59
2022/10/10 12:36:17;;;;;;;67.53;21.25;;;25.20;73.80;;;;;;4930366;28;20392;-57
2022/10/10 12:39:10;;;;;;;68.45;20.77;;;;;;;;;;4929459;28;20104;-57
2022/10/10 12:41:51;;;;;;;87.28;23.52;;;24.90;99.90;;;;;;4958035;28;20043;-60
2022/10/10 12:44:34;;;;;;;82.90;23.65;;;25.10;74.40;;;;;;4929226;29;20024;-59
2022/10/10 12:47:15;;;;;;;81.75;24.30;;;25.00;74.00;;;;;;4927978;29;20031;-55
2022/10/10 12:49:54;;;;;;;86.30;25.20;;;25.10;74.90;;;;;;4928040;29;20037;-60
2022/10/10 12:52:26;;;;;;;77.72;23.60;;;25.10;79.40;;;;;;4928644;29;20084;-59
2022/10/10 12:55:00;;;;;;;81.60;25.88;;;25.10;87.60;;;;;;4929276;29;20042;-57
2022/10/10 12:57:42;;;;;;;95.13;27.73;;;24.90;80.60;;;;;;4929323;29;20052;-59
2022/10/10 13:00:21;;;;;;;83.32;27.10;;;25.20;85.10;;;;;;4929716;29;20027;-59
2022/10/10 13:02:53;;;;;;;95.93;27.80;;;25.10;88.20;;;;;;4927693;29;20542;-57
2022/10/10 13:05:22;;;;;;;84.00;26.52;;;;;;;;;;4929333;29;20043;-58
2022/10/10 13:07:49;;;;;;;86.63;26.27;;;;;;;;;;4928653;29;20024;-59
2022/10/10 13:10:25;;;;;;;87.75;27.13;;;24.90;90.50;;;;;;4928916;29;20028;-60
2022/10/10 13:13:20;;;;;;;79.90;25.38;;;24.90;77.40;;;;;;4927658;28;20187;-58
2022/10/10 13:15:53;;;;;;;77.47;26.08;;;24.20;99.90;;;;;;4928702;29;20060;-58
2022/10/10 13:18:33;;;;;;;83.80;26.63;;;25.10;99.90;;;;;;4928103;29;20024;-56
2022/10/10 13:21:01;;;;;;;75.63;24.45;;;24.60;89.70;;;;;;4928024;29;20770;-59
2022/10/10 13:23:28;;;;;;;89.53;26.95;;;24.80;99.90;;;;;;4928706;29;20526;-61
2022/10/10 13:25:54;;;;;;;81.05;26.10;;;;;;;;;;4928356;29;20165;-61